createdAt,value
2022-09-22T00:00:39.300Z,18.00
2022-09-22T00:03:18.539Z,19.58
2022-09-22T00:06:08.889Z,21.05
2022-09-22T00:08:43.201Z,18.55
2022-09-22T00:11:22.882Z,18.42
2022-09-22T00:14:03.481Z,21.23
2022-09-22T00:16:37.404Z,23.02
2022-09-22T00:19:32.225Z,24.27
2022-09-22T00:22:05.946Z,32.47
2022-09-22T00:27:11.408Z,36.88
2022-09-22T00:29:48.915Z,46.13
2022-09-22T00:32:30.265Z,45.53
2022-09-22T00:35:03.222Z,49.10
2022-09-22T00:37:41.355Z,35.72
2022-09-22T00:40:17.977Z,39.55
2022-09-22T00:43:14.667Z,31.02
2022-09-22T00:45:51.472Z,29.45
2022-09-22T00:48:26.215Z,34.20
2022-09-22T00:51:06.255Z,34.20
2022-09-22T00:53:45.425Z,27.88
2022-09-22T00:56:24.217Z,28.25
2022-09-22T00:59:21.734Z,27.27
2022-09-22T01:02:08.829Z,22.55
2022-09-22T01:04:44.719Z,25.00
2022-09-22T01:07:18.398Z,24.10
2022-09-22T01:12:33.903Z,22.65
2022-09-22T01:15:30.836Z,24.10
2022-09-22T01:18:23.803Z,24.30
2022-09-22T01:21:22.190Z,21.38
2022-09-22T01:24:26.218Z,22.58
2022-09-22T01:27:02.437Z,21.55
2022-09-22T01:30:28.155Z,26.23
2022-09-22T01:33:06.634Z,26.67
2022-09-22T01:35:56.959Z,27.75
2022-09-22T01:38:58.758Z,30.23
2022-09-22T01:42:03.332Z,32.55
2022-09-22T01:44:42.688Z,27.73
2022-09-22T01:47:34.311Z,34.00
2022-09-22T01:50:21.042Z,36.28
2022-09-22T01:53:01.547Z,39.15
2022-09-22T01:55:41.224Z,45.70
2022-09-22T01:58:24.568Z,43.92
2022-09-22T02:01:13.627Z,48.47
2022-09-22T02:04:00.338Z,45.78
2022-09-22T02:06:51.179Z,48.72
2022-09-22T02:09:26.410Z,48.55
2022-09-22T02:12:01.731Z,49.63
2022-09-22T02:14:34.609Z,38.22
2022-09-22T02:17:14.532Z,42.70
2022-09-22T02:19:50.539Z,43.40
2022-09-22T02:22:28.773Z,41.72
2022-09-22T02:25:04.267Z,38.33
2022-09-22T02:27:41.019Z,40.05
2022-09-22T02:30:23.714Z,35.08
2022-09-22T02:33:02.250Z,36.75
2022-09-22T02:35:40.111Z,39.90
2022-09-22T02:38:25.715Z,43.05
2022-09-22T02:41:12.565Z,39.22
2022-09-22T02:43:51.946Z,46.63
2022-09-22T02:46:27.474Z,42.22
2022-09-22T02:49:06.272Z,46.20
2022-09-22T02:51:39.636Z,47.53
2022-09-22T02:54:21.759Z,49.05
2022-09-22T02:57:07.495Z,51.25
2022-09-22T02:59:40.033Z,52.47
2022-09-22T03:02:18.377Z,51.83
2022-09-22T03:04:59.115Z,54.60
2022-09-22T03:07:36.609Z,53.53
2022-09-22T03:10:12.196Z,59.00
2022-09-22T03:13:09.156Z,57.47
2022-09-22T03:15:53.858Z,56.13
2022-09-22T03:18:31.436Z,55.13
2022-09-22T03:21:07.018Z,57.47
2022-09-22T03:23:48.414Z,54.83
2022-09-22T03:26:25.503Z,61.53
2022-09-22T03:29:00.581Z,74.45
2022-09-22T03:31:40.471Z,74.82
2022-09-22T03:34:12.832Z,70.85
2022-09-22T03:36:52.624Z,70.32
2022-09-22T03:39:30.460Z,69.35
2022-09-22T03:42:08.395Z,69.40
2022-09-22T03:44:52.507Z,67.38
2022-09-22T03:47:30.698Z,71.63
2022-09-22T03:50:06.461Z,61.13
2022-09-22T03:52:40.267Z,66.13
2022-09-22T03:58:08.069Z,61.55
2022-09-22T04:00:44.239Z,58.05
2022-09-22T04:03:16.773Z,61.78
2022-09-22T04:05:55.996Z,62.97
2022-09-22T04:08:35.298Z,59.13
2022-09-22T04:14:01.543Z,59.50
2022-09-22T04:16:42.766Z,54.83
2022-09-22T04:19:14.158Z,52.72
2022-09-22T04:21:56.897Z,60.03
2022-09-22T04:24:33.382Z,53.42
2022-09-22T04:27:20.911Z,54.53
2022-09-22T04:30:03.242Z,59.05
2022-09-22T04:32:36.896Z,59.55
2022-09-22T04:37:56.728Z,56.22
2022-09-22T04:40:42.619Z,59.30
2022-09-22T04:43:15.708Z,57.55
2022-09-22T04:45:49.037Z,68.80
2022-09-22T04:48:30.281Z,64.57
2022-09-22T04:51:08.074Z,61.17
2022-09-22T04:53:43.342Z,64.82
2022-09-22T04:56:18.575Z,64.25
2022-09-22T04:58:56.732Z,63.67
2022-09-22T05:01:27.474Z,65.78
2022-09-22T05:04:08.111Z,64.35
2022-09-22T05:06:39.666Z,61.78
2022-09-22T05:09:23.076Z,63.65
2022-09-22T05:12:02.681Z,66.47
2022-09-22T05:14:40.104Z,61.08
2022-09-22T05:17:16.384Z,58.33
2022-09-22T05:19:50.076Z,67.30
2022-09-22T05:22:23.074Z,63.50
2022-09-22T05:25:04.374Z,57.97
2022-09-22T05:27:38.163Z,65.05
2022-09-22T05:30:17.146Z,69.43
2022-09-22T05:32:52.806Z,69.80
2022-09-22T05:35:36.877Z,69.20
2022-09-22T05:38:09.449Z,74.43
2022-09-22T05:40:39.649Z,107.85
2022-09-22T05:43:18.298Z,130.40
2022-09-22T05:45:50.892Z,153.45
2022-09-22T05:48:32.745Z,171.20
2022-09-22T05:51:16.027Z,169.25
2022-09-22T05:53:57.638Z,155.45
2022-09-22T05:56:31.375Z,159.48
2022-09-22T05:59:06.726Z,158.13
2022-09-22T06:01:39.557Z,125.78
2022-09-22T06:04:18.589Z,92.72
2022-09-22T06:06:56.449Z,83.35
2022-09-22T06:09:33.979Z,71.50
2022-09-22T06:12:13.055Z,53.92
2022-09-22T06:14:52.237Z,53.08
2022-09-22T06:17:27.879Z,38.50
2022-09-22T06:19:58.721Z,40.80
2022-09-22T06:22:31.376Z,19.88
2022-09-22T06:25:05.572Z,15.55
2022-09-22T06:27:40.843Z,12.85
2022-09-22T06:30:13.609Z,10.20
2022-09-22T06:32:54.346Z,8.97
2022-09-22T06:35:38.789Z,9.25
2022-09-22T06:38:17.277Z,7.75
2022-09-22T06:40:45.935Z,7.22
2022-09-22T06:43:27.734Z,7.28
2022-09-22T06:46:08.640Z,7.03
2022-09-22T06:48:35.915Z,6.35
2022-09-22T06:51:10.827Z,6.20
2022-09-22T06:53:48.602Z,5.95
2022-09-22T06:56:20.399Z,5.50
2022-09-22T06:59:09.544Z,5.63
2022-09-22T07:01:43.983Z,5.28
2022-09-22T07:04:20.752Z,5.38
2022-09-22T07:06:50.467Z,5.60
2022-09-22T07:09:25.664Z,5.15
2022-09-22T07:11:58.654Z,5.30
2022-09-22T07:14:35.590Z,5.18
2022-09-22T07:17:08.161Z,4.57
2022-09-22T07:19:38.376Z,4.82
2022-09-22T07:22:11.075Z,4.75
2022-09-22T07:24:44.413Z,4.60
2022-09-22T07:27:26.309Z,4.35
2022-09-22T07:29:57.721Z,4.32
2022-09-22T07:32:25.006Z,4.32
2022-09-22T07:34:56.327Z,3.95
2022-09-22T07:37:42.342Z,4.70
2022-09-22T07:40:23.334Z,3.80
2022-09-22T07:43:01.595Z,3.67
2022-09-22T07:45:34.114Z,4.20
2022-09-22T07:48:37.435Z,3.83
2022-09-22T07:51:16.507Z,3.83
2022-09-22T07:54:10.181Z,3.80
2022-09-22T07:56:52.970Z,4.07
2022-09-22T07:59:22.593Z,4.28
2022-09-22T08:01:53.177Z,3.60
2022-09-22T08:04:24.282Z,3.38
2022-09-22T08:07:00.145Z,3.40
2022-09-22T08:09:34.267Z,3.45
2022-09-22T08:12:10.689Z,3.28
2022-09-22T08:14:50.042Z,2.83
2022-09-22T08:17:30.931Z,3.30
2022-09-22T08:20:10.611Z,2.72
2022-09-22T08:22:44.264Z,3.00
2022-09-22T08:25:12.861Z,2.55
2022-09-22T08:27:48.099Z,2.50
2022-09-22T08:30:26.804Z,2.38
2022-09-22T08:33:00.843Z,2.60
2022-09-22T08:35:41.503Z,2.88
2022-09-22T08:38:20.099Z,2.95
2022-09-22T08:40:59.435Z,2.25
2022-09-22T08:43:29.924Z,2.58
2022-09-22T08:45:58.100Z,2.80
2022-09-22T08:48:50.063Z,2.65
2022-09-22T08:51:52.367Z,2.35
2022-09-22T08:54:35.458Z,2.45
2022-09-22T08:57:11.617Z,2.73
2022-09-22T09:00:20.060Z,2.17
2022-09-22T09:03:23.500Z,2.83
2022-09-22T09:06:36.724Z,2.63
2022-09-22T09:09:29.693Z,2.10
2022-09-22T09:12:16.367Z,2.28
2022-09-22T09:15:17.188Z,2.40
2022-09-22T09:17:50.460Z,2.35
2022-09-22T09:20:49.377Z,2.70
2022-09-22T09:23:24.756Z,3.28
2022-09-22T09:26:03.670Z,2.40
2022-09-22T09:28:48.002Z,2.55
2022-09-22T09:31:29.081Z,2.75
2022-09-22T09:34:07.863Z,2.08
2022-09-22T09:36:45.634Z,2.28
2022-09-22T09:39:40.355Z,2.42
2022-09-22T09:42:29.394Z,2.30
2022-09-22T09:45:02.573Z,2.15
2022-09-22T09:47:49.350Z,2.20
2022-09-22T09:50:26.742Z,2.40
2022-09-22T09:52:58.411Z,1.98
2022-09-22T09:55:48.137Z,2.50
2022-09-22T09:58:41.760Z,2.55
2022-09-22T10:01:14.491Z,2.08
2022-09-22T10:03:58.187Z,2.00
2022-09-22T10:06:26.594Z,2.33
2022-09-22T10:08:59.526Z,2.22
2022-09-22T10:11:38.752Z,1.90
2022-09-22T10:14:19.378Z,2.15
2022-09-22T10:16:55.377Z,2.20
2022-09-22T10:19:32.261Z,1.83
2022-09-22T10:22:29.463Z,2.45
2022-09-22T10:24:59.371Z,2.30
2022-09-22T10:27:30.162Z,2.15
2022-09-22T10:30:23.260Z,2.15
2022-09-22T10:33:13.622Z,2.05
2022-09-22T10:36:11.784Z,1.83
2022-09-22T10:38:49.225Z,1.67
2022-09-22T10:41:29.213Z,1.95
2022-09-22T10:44:15.462Z,1.55
2022-09-22T10:47:22.487Z,1.60
2022-09-22T10:50:18.740Z,1.63
2022-09-22T10:53:10.343Z,1.70
2022-09-22T10:56:18.778Z,1.67
2022-09-22T10:59:10.109Z,1.50
2022-09-22T11:02:16.264Z,1.60
2022-09-22T11:05:08.124Z,1.90
2022-09-22T11:08:39.046Z,1.80
2022-09-22T11:11:46.550Z,1.88
2022-09-22T11:14:43.240Z,1.60
2022-09-22T11:17:57.324Z,1.77
2022-09-22T11:20:40.318Z,1.85
2022-09-22T11:23:34.855Z,1.55
2022-09-22T11:26:31.590Z,1.60
2022-09-22T11:29:20.552Z,1.52
2022-09-22T11:32:19.878Z,1.60
2022-09-22T11:35:11.884Z,1.50
2022-09-22T11:38:12.822Z,1.80
2022-09-22T11:40:54.677Z,2.55
2022-09-22T11:43:28.482Z,2.53
2022-09-22T11:46:19.937Z,2.72
2022-09-22T11:49:10.064Z,2.58
2022-09-22T11:52:09.631Z,1.95
2022-09-22T11:54:51.643Z,1.95
2022-09-22T11:57:26.370Z,2.25
2022-09-22T12:00:08.999Z,2.67
2022-09-22T12:02:49.308Z,2.17
2022-09-22T12:05:37.200Z,2.47
2022-09-22T12:08:14.210Z,2.40
2022-09-22T12:10:45.717Z,2.42
2022-09-22T12:13:23.185Z,2.30
2022-09-22T12:16:14.083Z,2.55
2022-09-22T12:18:57.650Z,2.28
2022-09-22T12:21:48.049Z,2.60
2022-09-22T12:24:16.131Z,2.30
2022-09-22T12:26:46.346Z,2.20
2022-09-22T12:29:19.422Z,2.35
2022-09-22T12:31:49.163Z,2.08
2022-09-22T12:34:22.577Z,2.28
2022-09-22T12:36:59.913Z,2.35
2022-09-22T12:39:32.429Z,2.50
2022-09-22T12:42:19.029Z,2.22
2022-09-22T12:45:00.800Z,2.50
2022-09-22T12:47:33.630Z,2.28
2022-09-22T12:50:06.123Z,2.70
2022-09-22T12:52:52.967Z,2.22
2022-09-22T12:55:45.199Z,2.05
2022-09-22T12:58:30.550Z,2.92
2022-09-22T13:01:32.739Z,2.55
2022-09-22T13:04:17.337Z,3.05
2022-09-22T13:06:47.467Z,2.70
2022-09-22T13:09:25.656Z,2.78
2022-09-22T13:12:17.648Z,2.40
2022-09-22T13:14:59.679Z,2.65
2022-09-22T13:17:46.811Z,2.50
2022-09-22T13:20:25.562Z,2.70
2022-09-22T13:22:52.727Z,2.53
2022-09-22T13:25:36.541Z,2.40
2022-09-22T13:28:15.823Z,2.25
2022-09-22T13:30:47.136Z,2.53
2022-09-22T13:33:31.421Z,2.35
2022-09-22T13:36:16.687Z,2.55
2022-09-22T13:38:51.164Z,2.65
2022-09-22T13:41:26.532Z,2.30
2022-09-22T13:44:08.035Z,2.45
2022-09-22T13:46:57.059Z,2.08
2022-09-22T13:49:34.521Z,2.45
2022-09-22T13:52:20.592Z,2.03
2022-09-22T13:55:12.182Z,2.00
2022-09-22T13:57:53.529Z,1.98
2022-09-22T14:01:01.493Z,2.25
2022-09-22T14:03:27.359Z,2.55
2022-09-22T14:05:56.784Z,2.45
2022-09-22T14:08:34.006Z,1.77
2022-09-22T14:11:04.318Z,2.45
2022-09-22T14:14:02.337Z,2.42
2022-09-22T14:16:59.120Z,2.05
2022-09-22T14:19:47.595Z,2.10
2022-09-22T14:22:42.131Z,2.25
2022-09-22T14:25:20.780Z,2.15
2022-09-22T14:27:55.634Z,2.33
2022-09-22T14:30:30.945Z,1.90
2022-09-22T14:33:06.981Z,1.83
2022-09-22T14:35:54.952Z,2.30
2022-09-22T14:38:24.898Z,2.05
2022-09-22T14:41:39.376Z,2.30
2022-09-22T14:44:53.001Z,2.08
2022-09-22T14:47:46.431Z,1.88
2022-09-22T14:50:26.452Z,2.17
2022-09-22T14:53:14.329Z,2.20
2022-09-22T14:56:07.282Z,2.25
2022-09-22T14:58:41.667Z,2.50
2022-09-22T15:01:45.177Z,2.50
2022-09-22T15:04:33.039Z,2.05
2022-09-22T15:07:08.045Z,2.42
2022-09-22T15:10:17.847Z,2.40
2022-09-22T15:15:34.733Z,2.55
2022-09-22T15:18:19.652Z,2.85
2022-09-22T15:24:15.437Z,2.88
2022-09-22T15:26:52.446Z,2.75
2022-09-22T15:29:34.035Z,2.60
2022-09-22T15:32:16.013Z,2.92
2022-09-22T15:34:55.141Z,2.30
2022-09-22T15:37:42.344Z,2.90
2022-09-22T15:40:24.742Z,3.72
2022-09-22T15:43:13.485Z,3.63
2022-09-22T15:45:52.823Z,3.33
2022-09-22T15:51:23.570Z,3.10
2022-09-22T15:53:59.258Z,3.25
2022-09-22T15:56:33.241Z,3.17
2022-09-22T15:59:19.191Z,3.30
2022-09-22T16:01:54.010Z,3.83
2022-09-22T16:04:21.803Z,3.83
2022-09-22T16:07:16.500Z,4.03
2022-09-22T16:09:49.428Z,3.53
2022-09-22T16:12:18.676Z,3.47
2022-09-22T16:14:57.232Z,3.97
2022-09-22T16:17:45.782Z,3.58
2022-09-22T16:20:27.734Z,4.13
2022-09-22T16:23:05.229Z,3.83
2022-09-22T16:25:42.269Z,5.18
2022-09-22T16:28:18.294Z,6.53
2022-09-22T16:30:53.570Z,7.25
2022-09-22T16:33:26.534Z,8.45
2022-09-22T16:35:56.572Z,8.05
2022-09-22T16:38:26.813Z,8.25
2022-09-22T16:41:04.735Z,7.88
2022-09-22T16:43:37.242Z,7.38
2022-09-22T16:46:36.135Z,6.47
2022-09-22T16:49:22.589Z,5.75
2022-09-22T16:51:54.439Z,6.20
2022-09-22T16:54:28.625Z,6.35
2022-09-22T16:56:56.334Z,5.90
2022-09-22T16:59:31.955Z,6.72
2022-09-22T17:02:04.854Z,6.97
2022-09-22T17:04:32.501Z,7.65
2022-09-22T17:07:08.789Z,8.02
2022-09-22T17:12:32.144Z,7.57
2022-09-22T17:15:05.449Z,7.60
2022-09-22T17:17:45.377Z,7.57
2022-09-22T17:20:13.903Z,8.00
2022-09-22T17:22:47.163Z,8.07
2022-09-22T17:25:16.690Z,8.45
2022-09-22T17:27:49.859Z,8.52
2022-09-22T17:30:25.381Z,8.95
2022-09-22T17:32:59.217Z,9.18
2022-09-22T17:35:31.650Z,8.73
2022-09-22T17:38:06.308Z,11.55
2022-09-22T17:40:47.085Z,10.23
2022-09-22T17:43:15.351Z,9.90
2022-09-22T17:45:55.835Z,10.40
2022-09-22T17:48:50.271Z,12.13
2022-09-22T17:51:56.100Z,13.07
2022-09-22T17:55:00.826Z,33.45
2022-09-22T18:00:13.725Z,15.98
2022-09-22T18:02:49.981Z,13.45
2022-09-22T18:05:29.948Z,13.13
2022-09-22T18:08:10.600Z,12.98
2022-09-22T18:10:46.174Z,14.85
2022-09-22T18:13:23.203Z,15.27
2022-09-22T18:16:06.140Z,15.18
2022-09-22T18:18:41.269Z,15.20
2022-09-22T18:21:16.147Z,13.13
2022-09-22T18:23:51.792Z,14.82
2022-09-22T18:26:39.784Z,14.27
2022-09-22T18:29:18.232Z,14.65
2022-09-22T18:31:48.705Z,13.63
2022-09-22T18:34:34.941Z,16.75
2022-09-22T18:37:27.504Z,17.98
2022-09-22T18:40:08.118Z,20.20
2022-09-22T18:42:50.271Z,19.80
2022-09-22T18:45:17.474Z,23.80
2022-09-22T18:47:58.703Z,23.70
2022-09-22T18:50:35.838Z,26.70
2022-09-22T18:53:17.928Z,25.75
2022-09-22T18:55:53.425Z,23.27
2022-09-22T18:58:29.275Z,21.67
2022-09-22T19:01:04.473Z,22.45
2022-09-22T19:03:41.503Z,20.38
2022-09-22T19:06:20.757Z,20.25
2022-09-22T19:09:04.085Z,20.75
2022-09-22T19:11:38.566Z,24.55
2022-09-22T19:14:17.925Z,21.17
2022-09-22T19:16:59.608Z,21.67
2022-09-22T19:19:46.051Z,18.13
2022-09-22T19:22:21.817Z,18.10
2022-09-22T19:25:00.482Z,17.67
2022-09-22T19:27:36.689Z,14.73
2022-09-22T19:30:24.069Z,18.70
2022-09-22T19:33:05.911Z,17.80
2022-09-22T19:35:41.497Z,24.42
2022-09-22T19:38:25.873Z,25.23
2022-09-22T19:41:06.194Z,21.90
2022-09-22T19:43:50.175Z,22.92
2022-09-22T19:54:16.130Z,23.03
2022-09-22T19:56:55.053Z,20.77
2022-09-22T19:59:32.780Z,22.05
2022-09-22T20:02:14.207Z,19.52
2022-09-22T20:04:56.051Z,20.35
2022-09-22T20:07:34.749Z,21.02
2022-09-22T20:10:18.678Z,19.38
2022-09-22T20:15:31.629Z,18.33
2022-09-22T20:18:05.593Z,22.67
2022-09-22T20:20:51.181Z,22.35
2022-09-22T20:23:24.342Z,23.05
2022-09-22T20:25:57.387Z,15.93
2022-09-22T20:28:36.180Z,20.85
2022-09-22T20:31:14.352Z,23.08
2022-09-22T20:33:55.647Z,21.40
2022-09-22T20:36:35.987Z,21.92
2022-09-22T20:39:18.102Z,34.15
2022-09-22T20:41:55.836Z,40.85
2022-09-22T20:44:32.295Z,38.83
2022-09-22T20:47:07.262Z,34.80
2022-09-22T20:49:45.915Z,39.22
2022-09-22T20:52:27.959Z,37.97
2022-09-22T20:55:05.103Z,41.60
2022-09-22T20:57:42.828Z,42.28
2022-09-22T21:00:19.098Z,45.85
2022-09-22T21:03:01.667Z,45.05
2022-09-22T21:05:37.048Z,44.88
2022-09-22T21:08:34.194Z,41.45
2022-09-22T21:11:08.259Z,43.08
2022-09-22T21:13:46.423Z,44.05
2022-09-22T21:16:38.470Z,54.78
2022-09-22T21:19:12.843Z,46.75
2022-09-22T21:21:45.427Z,42.60
2022-09-22T21:24:31.111Z,39.25
2022-09-22T21:27:14.588Z,47.80
2022-09-22T21:29:45.096Z,54.30
2022-09-22T21:32:24.632Z,55.63
2022-09-22T21:35:01.590Z,54.65
2022-09-22T21:37:40.350Z,51.63
2022-09-22T21:40:17.713Z,43.53
2022-09-22T21:42:52.147Z,45.30
2022-09-22T21:45:28.356Z,46.10
2022-09-22T21:48:06.742Z,47.15
2022-09-22T21:50:42.016Z,44.05
2022-09-22T21:53:20.476Z,48.95
2022-09-22T21:56:11.680Z,45.85
2022-09-22T21:58:45.178Z,46.25
2022-09-22T22:01:29.335Z,47.33
2022-09-22T22:04:17.862Z,47.45
2022-09-22T22:06:52.176Z,48.25
2022-09-22T22:09:27.693Z,50.67
2022-09-22T22:12:02.988Z,50.67
2022-09-22T22:14:49.282Z,51.30
2022-09-22T22:17:21.737Z,51.55
2022-09-22T22:19:59.221Z,50.90
2022-09-22T22:22:29.371Z,48.50
2022-09-22T22:25:07.168Z,54.03
2022-09-22T22:27:50.622Z,56.05
2022-09-22T22:30:30.950Z,49.28
2022-09-22T22:33:12.548Z,52.10
2022-09-22T22:36:01.943Z,52.83
2022-09-22T22:38:35.967Z,45.97
2022-09-22T22:41:15.342Z,58.13
2022-09-22T22:43:54.625Z,55.28
2022-09-22T22:46:27.543Z,55.42
2022-09-22T22:49:00.397Z,59.80
2022-09-22T22:51:43.235Z,65.87
2022-09-22T22:54:14.647Z,67.53
2022-09-22T22:56:52.493Z,71.13
2022-09-22T22:59:27.889Z,80.75
2022-09-22T23:02:06.484Z,76.28
2022-09-22T23:04:41.960Z,75.25
2022-09-22T23:07:17.669Z,77.95
2022-09-22T23:10:06.554Z,85.60
2022-09-22T23:12:43.976Z,77.10
2022-09-22T23:15:26.355Z,79.95
2022-09-22T23:18:07.487Z,80.82
2022-09-22T23:20:45.057Z,79.65
2022-09-22T23:23:28.703Z,79.53
2022-09-22T23:26:18.058Z,75.90
2022-09-22T23:28:52.678Z,74.82
2022-09-22T23:31:25.979Z,73.50
2022-09-22T23:34:09.119Z,77.35
2022-09-22T23:36:48.246Z,72.63
2022-09-22T23:39:23.231Z,69.85
2022-09-22T23:41:56.402Z,67.05
2022-09-22T23:44:42.322Z,72.55
2022-09-22T23:47:20.837Z,68.10
2022-09-22T23:50:06.555Z,63.05
2022-09-22T23:52:45.831Z,64.55
2022-09-22T23:55:26.855Z,69.65
2022-09-22T23:57:58.180Z,63.30
